Time;durP1;ratioP1;P1;durP2;ratioP2;P2;SDS_P1;SDS_P2;PMS_P1;PMS_P2;Temp;Humidity;BMP_temperature;BMP_pressure;BME280_temperature;BME280_humidity;BME280_pressure;Samples;Min_cycle;Max_cycle;Signal;HPM_P1;HPM_P2
2022/11/26 00:01:17;;;;;;;;;;;;;;;;;;5019493;28;19975;-88
2022/11/26 00:03:43;;;;;;;;;;;;;;;;;;5050059;28;19979;-89
2022/11/26 00:06:09;;;;;;;;;;;;;;;;;;5015619;28;20408;-87
2022/11/26 00:08:35;;;;;;;;;;;;;;;;;;5055818;28;19963;-87
2022/11/26 00:11:01;;;;;;;;;;;;;;;;;;5006853;28;19991;-87
2022/11/26 00:13:28;;;;;;;;;;;;;;;;;;5038233;28;19949;-86
2022/11/26 00:15:54;;;;;;;;;;;;;;;;;;5040335;28;19921;-84
2022/11/26 00:18:22;;;;;;;;;;;;;;;;;;5061663;28;19929;-88
2022/11/26 00:20:48;;;;;;;;;;;;;;;;;;5062501;28;20424;-87
2022/11/26 00:23:14;;;;;;;;;;;;;;;;;;5046111;28;20352;-89
2022/11/26 00:25:40;;;;;;;;;;;;;;;;;;5049487;28;19951;-88
2022/11/26 00:28:07;;;;;;;;;;;;;;;;;;5013707;28;19945;-87
2022/11/26 00:30:33;;;;;;;;;;;;;;;;;;5047613;28;19936;-87
2022/11/26 00:32:59;;;;;;;;;;;;;;;;;;5048922;28;20417;-87
2022/11/26 00:35:25;;;;;;;;;;;;;;;;;;5048889;28;19932;-86
2022/11/26 00:37:51;;;;;;;;;;;;;;;;;;5046329;28;19971;-86
2022/11/26 00:40:18;;;;;;;;;;;;;;;;;;5048237;28;20319;-87
2022/11/26 00:42:44;;;;;;;;;;;;;;;;;;5027666;28;20013;-89
2022/11/26 00:45:10;;;;;;;;;;;;;;;;;;5059438;28;19937;-89
2022/11/26 00:47:36;;;;;;;;;;;;;;;;;;5029433;28;19952;-88
2022/11/26 00:50:02;;;;;;;;;;;;;;;;;;5031493;28;19948;-88
2022/11/26 00:52:28;;;;;;;;;;;;;;;;;;5046533;28;19964;-89
2022/11/26 00:54:55;;;;;;;;;;;;;;;;;;5015399;28;20325;-88
2022/11/26 00:57:21;;;;;;;;;;;;;;;;;;5029010;28;20444;-88
2022/11/26 00:59:47;;;;;;;;;;;;;;;;;;5039131;28;20195;-88
2022/11/26 01:02:13;;;;;;;;;;;;;;;;;;5036352;28;19921;-88
2022/11/26 01:04:39;;;;;;;;;;;;;;;;;;5052183;28;19921;-88
2022/11/26 01:07:06;;;;;;;;;;;;;;;;;;5052119;28;19925;-89
2022/11/26 01:09:32;;;;;;;;;;;;;;;;;;5048012;28;19960;-88
2022/11/26 01:11:58;;;;;;;;;;;;;;;;;;5042351;28;20732;-89
2022/11/26 01:14:25;;;;;;;;;;;;;;;;;;5044198;28;20422;-89
2022/11/26 01:16:51;;;;;;;;;;;;;;;;;;5027722;28;19962;-87
2022/11/26 01:19:17;;;;;;;;;;;;;;;;;;5028606;28;20006;-85
2022/11/26 01:21:43;;;;;;;;;;;;;;;;;;5045789;28;20327;-85
2022/11/26 01:24:09;;;;;;;;;;;;;;;;;;5045124;28;20043;-85
2022/11/26 01:26:36;;;;;;;;;;;;;;;;;;5025970;28;20014;-85
2022/11/26 01:29:02;;;;;;;;;;;;;;;;;;5028471;28;19975;-84
2022/11/26 01:31:28;;;;;;;;;;;;;;;;;;5039778;28;19960;-85
2022/11/26 01:33:54;;;;;;;;;;;;;;;;;;5043622;28;19960;-85
2022/11/26 01:36:20;;;;;;;;;;;;;;;;;;5040176;28;19936;-84
2022/11/26 01:38:46;;;;;;;;;;;;;;;;;;5059837;28;19960;-85
2022/11/26 01:41:13;;;;;;;;;;;;;;;;;;5035098;28;19917;-85
2022/11/26 01:43:39;;;;;;;;;;;;;;;;;;5037760;28;19956;-85
2022/11/26 01:46:05;;;;;;;;;;;;;;;;;;5045573;28;19917;-84
2022/11/26 01:48:34;;;;;;;;;;;;;;;;;;5055568;28;20345;-88
2022/11/26 01:51:01;;;;;;;;;;;;;;;;;;5031414;28;19953;-88
2022/11/26 01:53:27;;;;;;;;;;;;;;;;;;5063024;28;20397;-88
2022/11/26 01:55:53;;;;;;;;;;;;;;;;;;5034271;28;19955;-89
2022/11/26 01:58:19;;;;;;;;;;;;;;;;;;5030644;28;19978;-89
2022/11/26 02:00:46;;;;;;;;;;;;;;;;;;5032532;28;19983;-90
2022/11/26 02:03:12;;;;;;;;;;;;;;;;;;5040591;28;19960;-90
2022/11/26 02:05:38;;;;;;;;;;;;;;;;;;5064084;28;20410;-89
2022/11/26 02:08:04;;;;;;;;;;;;;;;;;;5028663;28;20392;-87
2022/11/26 02:10:30;;;;;;;;;;;;;;;;;;5061479;28;19967;-88
2022/11/26 02:12:57;;;;;;;;;;;;;;;;;;5050829;28;19944;-85
2022/11/26 02:15:23;;;;;;;;;;;;;;;;;;5041242;28;19956;-86
2022/11/26 02:17:49;;;;;;;;;;;;;;;;;;5051624;28;19971;-86
2022/11/26 02:20:15;;;;;;;;;;;;;;;;;;5035155;28;20349;-85
2022/11/26 02:22:42;;;;;;;;;;;;;;;;;;5041434;28;19960;-86
2022/11/26 02:25:08;;;;;;;;;;;;;;;;;;5027374;28;20351;-85
2022/11/26 02:27:34;;;;;;;;;;;;;;;;;;5028891;28;19956;-86
2022/11/26 02:30:00;;;;;;;;;;;;;;;;;;5027588;28;19958;-86
2022/11/26 02:32:27;;;;;;;;;;;;;;;;;;5029402;28;19952;-86
2022/11/26 02:34:53;;;;;;;;;;;;;;;;;;5045849;28;19949;-86
2022/11/26 02:37:19;;;;;;;;;;;;;;;;;;5024124;28;19960;-85
2022/11/26 02:39:45;;;;;;;;;;;;;;;;;;5046057;28;19948;-85
2022/11/26 02:42:11;;;;;;;;;;;;;;;;;;5009861;28;19990;-85
2022/11/26 02:44:37;;;;;;;;;;;;;;;;;;5060041;28;20349;-84
2022/11/26 02:47:04;;;;;;;;;;;;;;;;;;5027189;28;19960;-84
2022/11/26 02:49:30;;;;;;;;;;;;;;;;;;5011113;28;19960;-84
2022/11/26 02:51:56;;;;;;;;;;;;;;;;;;5041962;28;19940;-85
2022/11/26 02:54:22;;;;;;;;;;;;;;;;;;5024343;28;19960;-85
2022/11/26 02:56:49;;;;;;;;;;;;;;;;;;5028477;28;19917;-85
2022/11/26 02:59:15;;;;;;;;;;;;;;;;;;5033217;28;19960;-83
2022/11/26 03:01:41;;;;;;;;;;;;;;;;;;5058806;28;19952;-83
2022/11/26 03:04:07;;;;;;;;;;;;;;;;;;5021438;28;19971;-83
2022/11/26 03:06:33;;;;;;;;;;;;;;;;;;5044403;28;20002;-83
2022/11/26 03:08:59;;;;;;;;;;;;;;;;;;5036677;28;19990;-83
2022/11/26 03:11:26;;;;;;;;;;;;;;;;;;5061109;28;19960;-85
2022/11/26 03:13:52;;;;;;;;;;;;;;;;;;5034848;28;20352;-84
2022/11/26 03:16:18;;;;;;;;;;;;;;;;;;5041205;28;19960;-83
2022/11/26 03:18:44;;;;;;;;;;;;;;;;;;5058525;28;19968;-83
2022/11/26 03:21:10;;;;;;;;;;;;;;;;;;5043014;28;19962;-84
2022/11/26 03:23:37;;;;;;;;;;;;;;;;;;5042984;28;20336;-85
2022/11/26 03:26:03;;;;;;;;;;;;;;;;;;5038316;28;19945;-87
2022/11/26 03:28:29;;;;;;;;;;;;;;;;;;5052266;28;19964;-85
2022/11/26 03:30:55;;;;;;;;;;;;;;;;;;5032606;28;19940;-85
2022/11/26 03:33:21;;;;;;;;;;;;;;;;;;5034943;28;19952;-83
2022/11/26 03:35:48;;;;;;;;;;;;;;;;;;5034068;28;20472;-84
2022/11/26 03:38:14;;;;;;;;;;;;;;;;;;5051139;28;19991;-85
2022/11/26 03:40:40;;;;;;;;;;;;;;;;;;5049902;28;19944;-82
2022/11/26 03:43:06;;;;;;;;;;;;;;;;;;5035462;28;19920;-83
2022/11/26 03:45:32;;;;;;;;;;;;;;;;;;5043795;28;19948;-84
2022/11/26 03:47:58;;;;;;;;;;;;;;;;;;5040831;28;19991;-83
2022/11/26 03:50:25;;;;;;;;;;;;;;;;;;5034535;28;19945;-83
2022/11/26 03:52:52;;;;;;;;;;;;;;;;;;5042183;28;19960;-83
2022/11/26 03:55:18;;;;;;;;;;;;;;;;;;5036579;28;20361;-84
2022/11/26 03:57:44;;;;;;;;;;;;;;;;;;5039009;28;19944;-82
2022/11/26 04:00:10;;;;;;;;;;;;;;;;;;5025361;28;19967;-83
2022/11/26 04:02:36;;;;;;;;;;;;;;;;;;5058696;28;19998;-83
2022/11/26 04:05:03;;;;;;;;;;;;;;;;;;5058464;28;19975;-83
2022/11/26 04:07:29;;;;;;;;;;;;;;;;;;5058431;28;19959;-84
2022/11/26 04:09:55;;;;;;;;;;;;;;;;;;5033789;28;20320;-81
2022/11/26 04:12:21;;;;;;;;;;;;;;;;;;5041579;28;19953;-82
2022/11/26 04:14:47;;;;;;;;;;;;;;;;;;5041160;28;19956;-82
2022/11/26 04:17:14;;;;;;;;;;;;;;;;;;5054341;28;20555;-81
2022/11/26 04:19:40;;;;;;;;;;;;;;;;;;5037319;28;19971;-81
2022/11/26 04:22:06;;;;;;;;;;;;;;;;;;5022138;28;19967;-82
2022/11/26 04:24:32;;;;;;;;;;;;;;;;;;5027740;28;19968;-82
2022/11/26 04:26:58;;;;;;;;;;;;;;;;;;5055906;28;20447;-81
2022/11/26 04:29:24;;;;;;;;;;;;;;;;;;5035688;28;19948;-81
2022/11/26 04:31:51;;;;;;;;;;;;;;;;;;5047531;28;19956;-83
2022/11/26 04:34:17;;;;;;;;;;;;;;;;;;5029148;28;19972;-82
2022/11/26 04:36:43;;;;;;;;;;;;;;;;;;5051327;28;20410;-82
2022/11/26 04:39:11;;;;;;;;;;;;;;;;;;5038171;28;19956;-82
2022/11/26 04:41:37;;;;;;;;;;;;;;;;;;5053115;28;19964;-84
2022/11/26 04:44:03;;;;;;;;;;;;;;;;;;5037992;28;20404;-84
2022/11/26 04:46:30;;;;;;;;;;;;;;;;;;5036646;28;19944;-84
2022/11/26 04:48:56;;;;;;;;;;;;;;;;;;5034627;28;19963;-82
2022/11/26 04:51:22;;;;;;;;;;;;;;;;;;5034098;28;20540;-82
2022/11/26 04:53:48;;;;;;;;;;;;;;;;;;5026102;28;19995;-82
2022/11/26 04:56:14;;;;;;;;;;;;;;;;;;5043224;28;20040;-81
2022/11/26 04:58:41;;;;;;;;;;;;;;;;;;5060310;28;19921;-82
2022/11/26 05:01:07;;;;;;;;;;;;;;;;;;5033229;28;19937;-82
2022/11/26 05:03:35;;;;;;;;;;;;;;;;;;5034723;28;19972;-82
2022/11/26 05:06:01;;;;;;;;;;;;;;;;;;5021309;28;20345;-82
2022/11/26 05:08:27;;;;;;;;;;;;;;;;;;5053222;28;19955;-83
2022/11/26 05:10:53;;;;;;;;;;;;;;;;;;5043019;28;19913;-83
2022/11/26 05:13:19;;;;;;;;;;;;;;;;;;5025928;28;20482;-82
2022/11/26 05:15:45;;;;;;;;;;;;;;;;;;5060859;28;19959;-83
2022/11/26 05:18:12;;;;;;;;;;;;;;;;;;5037815;28;19980;-82
2022/11/26 05:20:38;;;;;;;;;;;;;;;;;;5036781;28;20036;-81
2022/11/26 05:23:04;;;;;;;;;;;;;;;;;;5041030;28;19995;-82
2022/11/26 05:25:30;;;;;;;;;;;;;;;;;;5043199;28;20456;-84
2022/11/26 05:27:56;;;;;;;;;;;;;;;;;;5033515;28;19960;-83
2022/11/26 05:30:23;;;;;;;;;;;;;;;;;;5046682;28;20549;-83
2022/11/26 05:32:49;;;;;;;;;;;;;;;;;;5058582;28;20773;-81
2022/11/26 05:35:15;;;;;;;;;;;;;;;;;;5061272;28;19967;-81
2022/11/26 05:37:41;;;;;;;;;;;;;;;;;;5037994;28;20336;-81
2022/11/26 05:40:08;;;;;;;;;;;;;;;;;;5041070;28;20035;-82
2022/11/26 05:42:34;;;;;;;;;;;;;;;;;;5034769;28;20532;-81
2022/11/26 05:45:01;;;;;;;;;;;;;;;;;;5041451;28;20059;-82
2022/11/26 05:47:27;;;;;;;;;;;;;;;;;;5057187;28;19964;-82
2022/11/26 05:49:53;;;;;;;;;;;;;;;;;;5042791;28;19928;-82
2022/11/26 05:52:20;;;;;;;;;;;;;;;;;;5050801;28;19967;-82
2022/11/26 05:54:46;;;;;;;;;;;;;;;;;;5048149;28;19951;-82
2022/11/26 05:57:12;;;;;;;;;;;;;;;;;;5025788;28;19916;-82
2022/11/26 05:59:39;;;;;;;;;;;;;;;;;;5045604;28;19921;-82
2022/11/26 06:02:05;;;;;;;;;;;;;;;;;;5039423;28;19953;-82
2022/11/26 06:04:31;;;;;;;;;;;;;;;;;;5047384;28;19964;-82
2022/11/26 06:06:57;;;;;;;;;;;;;;;;;;5025253;28;20518;-81
2022/11/26 06:09:24;;;;;;;;;;;;;;;;;;5044825;28;19988;-81
2022/11/26 06:11:50;;;;;;;;;;;;;;;;;;5044714;28;19968;-84
2022/11/26 06:14:16;;;;;;;;;;;;;;;;;;5059933;28;19964;-84
2022/11/26 06:16:42;;;;;;;;;;;;;;;;;;5057202;28;19952;-81
2022/11/26 06:19:08;;;;;;;;;;;;;;;;;;5021184;28;20666;-82
2022/11/26 06:21:35;;;;;;;;;;;;;;;;;;5037505;28;19952;-82
2022/11/26 06:24:01;;;;;;;;;;;;;;;;;;5044750;28;19952;-82
2022/11/26 06:26:27;;;;;;;;;;;;;;;;;;5022846;28;19964;-83
2022/11/26 06:28:53;;;;;;;;;;;;;;;;;;5029273;28;20443;-84
2022/11/26 06:31:19;;;;;;;;;;;;;;;;;;5036529;28;19955;-85
2022/11/26 06:33:45;;;;;;;;;;;;;;;;;;5035654;28;19952;-84
2022/11/26 06:36:12;;;;;;;;;;;;;;;;;;5034052;28;19960;-84
2022/11/26 06:38:38;;;;;;;;;;;;;;;;;;5015267;28;20331;-83
2022/11/26 06:41:04;;;;;;;;;;;;;;;;;;5033206;28;19920;-82
2022/11/26 06:43:30;;;;;;;;;;;;;;;;;;5014317;28;19917;-82
2022/11/26 06:45:56;;;;;;;;;;;;;;;;;;5036650;28;19948;-82
2022/11/26 06:48:23;;;;;;;;;;;;;;;;;;5019100;28;20533;-82
2022/11/26 06:50:49;;;;;;;;;;;;;;;;;;5021743;28;19956;-82
2022/11/26 06:53:15;;;;;;;;;;;;;;;;;;5036303;28;20489;-82
2022/11/26 06:55:45;;;;;;;;;;;;;;;;;;5039797;28;19921;-82
2022/11/26 06:58:11;;;;;;;;;;;;;;;;;;5040659;28;20037;-81
2022/11/26 07:00:37;;;;;;;;;;;;;;;;;;5056514;28;19991;-82
2022/11/26 07:03:03;;;;;;;;;;;;;;;;;;5036623;28;19958;-81
2022/11/26 07:05:29;;;;;;;;;;;;;;;;;;5026653;28;20396;-78
2022/11/26 07:07:56;;;;;;;;;;;;;;;;;;5024727;28;19920;-78
2022/11/26 07:10:22;;;;;;;;;;;;;;;;;;5039865;28;20341;-77
2022/11/26 07:12:48;;;;;;;;;;;;;;;;;;5040313;28;20034;-79
2022/11/26 07:15:14;;;;;;;;;;;;;;;;;;5038313;28;20434;-79
2022/11/26 07:17:40;;;;;;;;;;;;;;;;;;5043061;28;19976;-76
2022/11/26 07:20:06;;;;;;;;;;;;;;;;;;5034240;28;20392;-76
2022/11/26 07:22:33;;;;;;;;;;;;;;;;;;5033637;28;19953;-75
2022/11/26 07:24:59;;;;;;;;;;;;;;;;;;5035938;28;19964;-77
2022/11/26 07:27:25;;;;;;;;;;;;;;;;;;5045272;28;19963;-76
2022/11/26 07:29:51;;;;;;;;;;;;;;;;;;5041838;28;20650;-79
2022/11/26 07:32:17;;;;;;;;;;;;;;;;;;5043291;28;19956;-76
2022/11/26 07:34:44;;;;;;;;;;;;;;;;;;5031196;28;20218;-76
2022/11/26 07:37:10;;;;;;;;;;;;;;;;;;5044701;28;19964;-77
2022/11/26 07:39:36;;;;;;;;;;;;;;;;;;5038710;28;19963;-78
2022/11/26 07:42:02;;;;;;;;;;;;;;;;;;5032346;28;19956;-77
2022/11/26 07:44:28;;;;;;;;;;;;;;;;;;5042119;28;19956;-77
2022/11/26 07:46:55;;;;;;;;;;;;;;;;;;5028086;28;20361;-78
2022/11/26 07:49:21;;;;;;;;;;;;;;;;;;5039589;28;20151;-77
2022/11/26 07:51:47;;;;;;;;;;;;;;;;;;5027665;28;19971;-79
2022/11/26 07:54:13;;;;;;;;;;;;;;;;;;5036864;28;19993;-79
2022/11/26 07:56:39;;;;;;;;;;;;;;;;;;5045504;28;20369;-79
2022/11/26 07:59:05;;;;;;;;;;;;;;;;;;5031521;28;19921;-79
2022/11/26 08:01:32;;;;;;;;;;;;;;;;;;5044110;28;19967;-78
2022/11/26 08:03:58;;;;;;;;;;;;;;;;;;5058567;28;19999;-79
2022/11/26 08:06:24;;;;;;;;;;;;;;;;;;5026609;28;19959;-79
2022/11/26 08:08:50;;;;;;;;;;;;;;;;;;5027064;28;20493;-79
2022/11/26 08:11:19;;;;;;;;;;;;;;;;;;5042200;28;20028;-79
2022/11/26 08:13:45;;;;;;;;;;;;;;;;;;5034074;28;19916;-80
2022/11/26 08:16:11;;;;;;;;;;;;;;;;;;5027014;28;20551;-79
2022/11/26 08:18:37;;;;;;;;;;;;;;;;;;5027799;28;19979;-79
2022/11/26 08:21:04;;;;;;;;;;;;;;;;;;5057226;28;20474;-79
2022/11/26 08:23:30;;;;;;;;;;;;;;;;;;5058976;28;19964;-79
2022/11/26 08:25:56;;;;;;;;;;;;;;;;;;5042566;28;19993;-79
2022/11/26 08:28:22;;;;;;;;;;;;;;;;;;5050026;28;19921;-78
2022/11/26 08:30:48;;;;;;;;;;;;;;;;;;5028574;28;19917;-79
2022/11/26 08:33:15;;;;;;;;;;;;;;;;;;5032155;28;19979;-77
2022/11/26 08:35:41;;;;;;;;;;;;;;;;;;5062897;28;19967;-78
2022/11/26 08:38:07;;;;;;;;;;;;;;;;;;5047275;28;19952;-78
2022/11/26 08:40:33;;;;;;;;;;;;;;;;;;5046724;28;19944;-78
2022/11/26 08:42:59;;;;;;;;;;;;;;;;;;5047216;28;19952;-79
2022/11/26 08:45:25;;;;;;;;;;;;;;;;;;5029142;28;19967;-79
2022/11/26 08:47:54;;;;;;;;;;;;;;;;;;5058938;28;20288;-79
2022/11/26 08:50:20;;;;;;;;;;;;;;;;;;5045309;28;19952;-78
2022/11/26 08:52:46;;;;;;;;;;;;;;;;;;5050189;28;19957;-79
2022/11/26 08:55:12;;;;;;;;;;;;;;;;;;5055510;28;19967;-79
2022/11/26 08:57:45;;;;;;;;;;;;;;;;;;5044619;28;20381;-79
2022/11/26 09:00:14;;;;;;;;;;;;;;;;;;5058052;28;20372;-79
2022/11/26 09:02:40;;;;;;;;;;;;;;;;;;5040954;28;19920;-78
2022/11/26 09:05:13;;;;;;;;;;;;;;;;;;5009677;28;19921;-79
2022/11/26 09:07:40;;;;;;;;;;;;;;;;;;5030970;28;20462;-79
2022/11/26 09:10:06;;;;;;;;;;;;;;;;;;5027453;28;19982;-79
2022/11/26 09:12:32;;;;;;;;;;;;;;;;;;5030217;28;20400;-80
2022/11/26 09:14:58;;;;;;;;;;;;;;;;;;5016855;28;19951;-78
2022/11/26 09:17:24;;;;;;;;;;;;;;;;;;5029763;28;19963;-78
2022/11/26 09:19:51;;;;;;;;;;;;;;;;;;5027851;28;19968;-78
2022/11/26 09:22:17;;;;;;;;;;;;;;;;;;5022235;28;19917;-79
2022/11/26 09:24:43;;;;;;;;;;;;;;;;;;5036947;28;20357;-79
2022/11/26 09:27:10;;;;;;;;;;;;;;;;;;5045494;28;19952;-79
2022/11/26 09:29:36;;;;;;;;;;;;;;;;;;5055988;28;19952;-78
2022/11/26 09:32:02;;;;;;;;;;;;;;;;;;5026113;28;20640;-78
2022/11/26 09:34:28;;;;;;;;;;;;;;;;;;5038488;28;19920;-79
2022/11/26 09:36:55;;;;;;;;;;;;;;;;;;5029681;28;19963;-79
2022/11/26 09:39:21;;;;;;;;;;;;;;;;;;5024495;28;19936;-79
2022/11/26 09:41:47;;;;;;;;;;;;;;;;;;5029204;28;19960;-79
2022/11/26 09:44:14;;;;;;;;;;;;;;;;;;5039149;28;19921;-79
2022/11/26 09:46:40;;;;;;;;;;;;;;;;;;5046121;28;19964;-79
2022/11/26 09:49:06;;;;;;;;;;;;;;;;;;5039805;28;19991;-79
2022/11/26 09:51:32;;;;;;;;;;;;;;;;;;5042099;28;19940;-77
2022/11/26 09:53:58;;;;;;;;;;;;;;;;;;5040016;28;20341;-77
2022/11/26 09:56:25;;;;;;;;;;;;;;;;;;5026022;28;19967;-79
2022/11/26 09:58:51;;;;;;;;;;;;;;;;;;5055025;28;19991;-79
2022/11/26 10:01:17;;;;;;;;;;;;;;;;;;5044267;28;19960;-79
2022/11/26 10:03:43;;;;;;;;;;;;;;;;;;5042652;28;19951;-79
2022/11/26 10:06:09;;;;;;;;;;;;;;;;;;5041116;28;20360;-78
2022/11/26 10:08:36;;;;;;;;;;;;;;;;;;5057626;28;19952;-79
2022/11/26 10:11:02;;;;;;;;;;;;;;;;;;5045567;28;19955;-78
2022/11/26 10:13:28;;;;;;;;;;;;;;;;;;5022203;28;19971;-78
2022/11/26 10:15:54;;;;;;;;;;;;;;;;;;5021231;28;19917;-79
2022/11/26 10:18:20;;;;;;;;;;;;;;;;;;5055140;28;19925;-79
2022/11/26 10:20:46;;;;;;;;;;;;;;;;;;5048938;28;19972;-80
2022/11/26 10:23:13;;;;;;;;;;;;;;;;;;5054785;28;19921;-78
2022/11/26 10:25:39;;;;;;;;;;;;;;;;;;5043897;28;19955;-78
2022/11/26 10:28:05;;;;;;;;;;;;;;;;;;5038640;28;20435;-79
2022/11/26 10:30:32;;;;;;;;;;;;;;;;;;5024799;28;20369;-79
2022/11/26 10:32:58;;;;;;;;;;;;;;;;;;5024600;28;19960;-77
2022/11/26 10:35:24;;;;;;;;;;;;;;;;;;5046790;28;19956;-79
2022/11/26 10:37:50;;;;;;;;;;;;;;;;;;5041522;28;20055;-79
2022/11/26 10:40:16;;;;;;;;;;;;;;;;;;5038442;28;19986;-79
2022/11/26 10:42:43;;;;;;;;;;;;;;;;;;5042034;28;19975;-79
2022/11/26 10:45:09;;;;;;;;;;;;;;;;;;5061391;28;19967;-79
2022/11/26 10:47:35;;;;;;;;;;;;;;;;;;5044157;28;19920;-79
2022/11/26 10:50:01;;;;;;;;;;;;;;;;;;5041994;28;19964;-78
2022/11/26 10:52:27;;;;;;;;;;;;;;;;;;5042075;28;19944;-79
2022/11/26 10:54:53;;;;;;;;;;;;;;;;;;5036834;28;19944;-79
2022/11/26 10:57:20;;;;;;;;;;;;;;;;;;5055088;28;20014;-79
2022/11/26 10:59:46;;;;;;;;;;;;;;;;;;5042726;28;19957;-79
2022/11/26 11:02:12;;;;;;;;;;;;;;;;;;5038885;28;19956;-79
2022/11/26 11:04:39;;;;;;;;;;;;;;;;;;5050854;28;20457;-78
2022/11/26 11:07:05;;;;;;;;;;;;;;;;;;5042220;28;19983;-79
2022/11/26 11:09:31;;;;;;;;;;;;;;;;;;5046018;28;19948;-79
2022/11/26 11:11:58;;;;;;;;;;;;;;;;;;5043448;28;19968;-77
2022/11/26 11:14:24;;;;;;;;;;;;;;;;;;5040504;28;19956;-78
2022/11/26 11:16:50;;;;;;;;;;;;;;;;;;5042990;28;20040;-79
2022/11/26 11:19:16;;;;;;;;;;;;;;;;;;5044232;28;19956;-79
2022/11/26 11:21:44;;;;;;;;;;;;;;;;;;5042630;28;20462;-79
2022/11/26 11:24:11;;;;;;;;;;;;;;;;;;5034001;28;19957;-79
2022/11/26 11:26:37;;;;;;;;;;;;;;;;;;5031378;28;19961;-79
2022/11/26 11:29:03;;;;;;;;;;;;;;;;;;5041938;28;19917;-79
2022/11/26 11:31:29;;;;;;;;;;;;;;;;;;5022746;28;19949;-79
2022/11/26 11:33:55;;;;;;;;;;;;;;;;;;5037679;28;19945;-79
2022/11/26 11:36:22;;;;;;;;;;;;;;;;;;5022856;28;19963;-78
2022/11/26 11:38:48;;;;;;;;;;;;;;;;;;5042828;28;19992;-79
2022/11/26 11:41:14;;;;;;;;;;;;;;;;;;5048853;28;19952;-78
2022/11/26 11:43:40;;;;;;;;;;;;;;;;;;5052399;28;19925;-79
2022/11/26 11:46:06;;;;;;;;;;;;;;;;;;5060251;28;19967;-79
2022/11/26 11:48:33;;;;;;;;;;;;;;;;;;5044001;28;19917;-79
2022/11/26 11:50:59;;;;;;;;;;;;;;;;;;5031156;28;19960;-78
2022/11/26 11:53:25;;;;;;;;;;;;;;;;;;5035866;28;19956;-79
2022/11/26 11:55:52;;;;;;;;;;;;;;;;;;5041057;28;19957;-79
2022/11/26 11:58:18;;;;;;;;;;;;;;;;;;5040769;28;20069;-79
2022/11/26 12:00:44;;;;;;;;;;;;;;;;;;5024535;28;19924;-79
2022/11/26 12:03:10;;;;;;;;;;;;;;;;;;5044474;28;19966;-79
2022/11/26 12:05:36;;;;;;;;;;;;;;;;;;5063203;28;19944;-79
2022/11/26 12:08:02;;;;;;;;;;;;;;;;;;5036289;28;20030;-79
2022/11/26 12:10:29;;;;;;;;;;;;;;;;;;5047106;28;19959;-79
2022/11/26 12:12:55;;;;;;;;;;;;;;;;;;5021461;28;19955;-78
2022/11/26 12:15:22;;;;;;;;;;;;;;;;;;5052095;28;20039;-78
2022/11/26 12:17:48;;;;;;;;;;;;;;;;;;5044733;28;19979;-79
2022/11/26 12:20:15;;;;;;;;;;;;;;;;;;5052958;28;19947;-78
2022/11/26 12:22:41;;;;;;;;;;;;;;;;;;5026550;28;19953;-78
2022/11/26 12:25:07;;;;;;;;;;;;;;;;;;5043544;28;19952;-77
2022/11/26 12:27:33;;;;;;;;;;;;;;;;;;5046475;28;19964;-78
2022/11/26 12:30:00;;;;;;;;;;;;;;;;;;5038707;28;20017;-78
2022/11/26 12:32:26;;;;;;;;;;;;;;;;;;5044878;28;20384;-79
2022/11/26 12:34:52;;;;;;;;;;;;;;;;;;5046750;28;19963;-78
2022/11/26 12:37:18;;;;;;;;;;;;;;;;;;5045659;28;19939;-78
2022/11/26 12:39:44;;;;;;;;;;;;;;;;;;5062113;28;19964;-79
2022/11/26 12:42:11;;;;;;;;;;;;;;;;;;5039530;28;20192;-78
2022/11/26 12:44:37;;;;;;;;;;;;;;;;;;5050142;28;20396;-79
2022/11/26 12:47:03;;;;;;;;;;;;;;;;;;5045523;28;20001;-78
2022/11/26 12:49:29;;;;;;;;;;;;;;;;;;5026096;28;19999;-79
2022/11/26 12:51:55;;;;;;;;;;;;;;;;;;5028826;28;20481;-79
2022/11/26 12:54:22;;;;;;;;;;;;;;;;;;5048381;28;19916;-77
2022/11/26 12:56:48;;;;;;;;;;;;;;;;;;5062088;28;19979;-78
2022/11/26 12:59:14;;;;;;;;;;;;;;;;;;5059482;28;19987;-78
2022/11/26 13:01:40;;;;;;;;;;;;;;;;;;5041975;28;19964;-78
2022/11/26 13:04:06;;;;;;;;;;;;;;;;;;5058746;28;19960;-78
2022/11/26 13:06:33;;;;;;;;;;;;;;;;;;5047006;28;19925;-79
2022/11/26 13:08:59;;;;;;;;;;;;;;;;;;5046626;28;19948;-78
2022/11/26 13:11:25;;;;;;;;;;;;;;;;;;5029412;28;19939;-79
2022/11/26 13:13:51;;;;;;;;;;;;;;;;;;5028391;28;19971;-79
2022/11/26 13:16:18;;;;;;;;;;;;;;;;;;5039576;28;19960;-78
2022/11/26 13:18:44;;;;;;;;;;;;;;;;;;5044624;28;19932;-79
2022/11/26 13:21:10;;;;;;;;;;;;;;;;;;5040082;28;19952;-79
2022/11/26 13:23:37;;;;;;;;;;;;;;;;;;5060042;28;19970;-78
2022/11/26 13:26:03;;;;;;;;;;;;;;;;;;5037973;28;19972;-79
2022/11/26 13:28:29;;;;;;;;;;;;;;;;;;5044291;28;19975;-78
2022/11/26 13:30:55;;;;;;;;;;;;;;;;;;5044860;28;19979;-78
2022/11/26 13:33:21;;;;;;;;;;;;;;;;;;5050918;28;19960;-79
2022/11/26 13:35:48;;;;;;;;;;;;;;;;;;5041411;28;19948;-78
2022/11/26 13:38:14;;;;;;;;;;;;;;;;;;5043841;28;19967;-78
2022/11/26 13:40:40;;;;;;;;;;;;;;;;;;5041720;28;19952;-78
2022/11/26 13:43:06;;;;;;;;;;;;;;;;;;5045492;28;19986;-78
2022/11/26 13:45:33;;;;;;;;;;;;;;;;;;5034418;28;20039;-79
2022/11/26 13:47:59;;;;;;;;;;;;;;;;;;5043444;28;19968;-78
2022/11/26 13:50:25;;;;;;;;;;;;;;;;;;5026780;28;20537;-78
2022/11/26 13:52:51;;;;;;;;;;;;;;;;;;5058968;28;20348;-79
2022/11/26 13:55:18;;;;;;;;;;;;;;;;;;5040770;28;19976;-78
2022/11/26 13:57:44;;;;;;;;;;;;;;;;;;5044599;28;20315;-78
2022/11/26 14:00:10;;;;;;;;;;;;;;;;;;5041955;28;19945;-79
2022/11/26 14:02:36;;;;;;;;;;;;;;;;;;5041452;28;20316;-79
2022/11/26 14:05:03;;;;;;;;;;;;;;;;;;5042786;28;19973;-79
2022/11/26 14:07:29;;;;;;;;;;;;;;;;;;5062548;28;19953;-78
2022/11/26 14:09:55;;;;;;;;;;;;;;;;;;5046082;28;19960;-78
2022/11/26 14:12:22;;;;;;;;;;;;;;;;;;5032154;28;19960;-78
2022/11/26 14:14:48;;;;;;;;;;;;;;;;;;5040720;28;19943;-78
2022/11/26 14:17:14;;;;;;;;;;;;;;;;;;5055855;28;19998;-78
2022/11/26 14:19:43;;;;;;;;;;;;;;;;;;5024463;28;19945;-79
2022/11/26 14:22:09;;;;;;;;;;;;;;;;;;5031418;28;20749;-79
2022/11/26 14:24:35;;;;;;;;;;;;;;;;;;5043609;28;19960;-80
2022/11/26 14:27:02;;;;;;;;;;;;;;;;;;5060801;28;19972;-78
2022/11/26 14:29:28;;;;;;;;;;;;;;;;;;5041164;28;19956;-79
2022/11/26 14:31:54;;;;;;;;;;;;;;;;;;5045056;28;19913;-79
2022/11/26 14:34:20;;;;;;;;;;;;;;;;;;5026250;28;19948;-79
2022/11/26 14:36:46;;;;;;;;;;;;;;;;;;5035589;28;20400;-79
2022/11/26 14:39:12;;;;;;;;;;;;;;;;;;5054982;28;20014;-79
2022/11/26 14:41:39;;;;;;;;;;;;;;;;;;5046395;28;20335;-79
2022/11/26 14:44:05;;;;;;;;;;;;;;;;;;5042250;28;19964;-79
2022/11/26 14:46:31;;;;;;;;;;;;;;;;;;5044677;28;20309;-78
2022/11/26 14:48:58;;;;;;;;;;;;;;;;;;5044754;28;20359;-79
2022/11/26 14:51:24;;;;;;;;;;;;;;;;;;5018557;28;19916;-78
2022/11/26 14:53:50;;;;;;;;;;;;;;;;;;5027056;28;20035;-80
2022/11/26 14:56:16;;;;;;;;;;;;;;;;;;5026774;28;20032;-79
2022/11/26 14:58:42;;;;;;;;;;;;;;;;;;5046494;28;19956;-80
2022/11/26 15:01:09;;;;;;;;;;;;;;;;;;5026516;28;19967;-80
2022/11/26 15:03:35;;;;;;;;;;;;;;;;;;5038719;28;19920;-80
2022/11/26 15:06:01;;;;;;;;;;;;;;;;;;5039464;28;19995;-78
2022/11/26 15:08:27;;;;;;;;;;;;;;;;;;5036559;28;20636;-80
2022/11/26 15:10:53;;;;;;;;;;;;;;;;;;5029934;28;19960;-79
2022/11/26 15:13:20;;;;;;;;;;;;;;;;;;5036859;28;20385;-80
2022/11/26 15:15:46;;;;;;;;;;;;;;;;;;5027436;28;19948;-80
2022/11/26 15:18:12;;;;;;;;;;;;;;;;;;5038599;28;19971;-79
2022/11/26 15:20:38;;;;;;;;;;;;;;;;;;5048082;28;19955;-80
2022/11/26 15:23:05;;;;;;;;;;;;;;;;;;5019522;28;19964;-79
2022/11/26 15:25:31;;;;;;;;;;;;;;;;;;5039381;28;19968;-80
2022/11/26 15:27:58;;;;;;;;;;;;;;;;;;5038084;28;19956;-78
2022/11/26 15:30:24;;;;;;;;;;;;;;;;;;5030735;28;19913;-79
2022/11/26 15:32:50;;;;;;;;;;;;;;;;;;5050645;28;20028;-79
2022/11/26 15:35:16;;;;;;;;;;;;;;;;;;5030527;28;19972;-79
2022/11/26 15:37:42;;;;;;;;;;;;;;;;;;5037639;28;20343;-79
2022/11/26 15:40:12;;;;;;;;;;;;;;;;;;5034795;28;19944;-79
2022/11/26 15:42:38;;;;;;;;;;;;;;;;;;5026166;28;19913;-79
2022/11/26 15:45:04;;;;;;;;;;;;;;;;;;5027199;28;19940;-79
2022/11/26 15:47:30;;;;;;;;;;;;;;;;;;5037871;28;20397;-79
2022/11/26 15:49:56;;;;;;;;;;;;;;;;;;5044878;28;19957;-80
2022/11/26 15:52:23;;;;;;;;;;;;;;;;;;5040246;28;19948;-79
2022/11/26 15:54:50;;;;;;;;;;;;;;;;;;5044260;28;20002;-79
2022/11/26 15:57:16;;;;;;;;;;;;;;;;;;5025053;28;20047;-80
2022/11/26 15:59:43;;;;;;;;;;;;;;;;;;5060665;28;19959;-80
2022/11/26 16:02:09;;;;;;;;;;;;;;;;;;5043779;28;19936;-79
2022/11/26 16:04:35;;;;;;;;;;;;;;;;;;5050954;28;19952;-79
2022/11/26 16:07:01;;;;;;;;;;;;;;;;;;5045233;28;19960;-78
2022/11/26 16:09:27;;;;;;;;;;;;;;;;;;5030882;28;19921;-80
2022/11/26 16:11:53;;;;;;;;;;;;;;;;;;5027034;28;19941;-81
2022/11/26 16:14:20;;;;;;;;;;;;;;;;;;5052886;28;19948;-80
2022/11/26 16:16:46;;;;;;;;;;;;;;;;;;5043140;28;19956;-80
2022/11/26 16:19:12;;;;;;;;;;;;;;;;;;5016712;28;19968;-80
2022/11/26 16:21:39;;;;;;;;;;;;;;;;;;5026403;28;20364;-80
2022/11/26 16:24:05;;;;;;;;;;;;;;;;;;5026290;28;19993;-79
2022/11/26 16:26:32;;;;;;;;;;;;;;;;;;5030671;28;19956;-80
2022/11/26 16:28:58;;;;;;;;;;;;;;;;;;5045089;28;20391;-79
2022/11/26 16:31:24;;;;;;;;;;;;;;;;;;5012538;28;19940;-80
2022/11/26 16:33:50;;;;;;;;;;;;;;;;;;5043808;28;19921;-80
2022/11/26 16:36:17;;;;;;;;;;;;;;;;;;5024256;28;19944;-79
2022/11/26 16:38:43;;;;;;;;;;;;;;;;;;5033301;28;19921;-79